Rogerslacy, Texas
Current Conditions -  °F | °C
As of 11:55 AM on Saturday 25 Oct 2014 (Local Time) from KT65 Reporting Station
Clear Clear  
Wind Chill: 27°   Ceiling: Unl
Heat Index: 28°   Visibility: 7mi
Dew Point: 17°   Wind: 0mph
Humidity: 55%   Direction: NA
Pressure: 30.17"   Gusts: NA
Location:  26.2692°N, 97.8326°W
Report Text: KT65 251655Z AUTO 00000KT 7SM CLR 27/17 A3017 RMK AO2 T02730174
Loading
Personal Weather Stations






























Interactive Weather Map
Tropical Storm Tracking
New forecast layout! Learn more

10-Day Weather Forecast

Advertisements
Track Severe Weather on mobile